Tributaries of Vltava river

river Berounka - water gauge Beroun

Date and time (UTC) H (cm) Q (m3/s)
25. 2. 2020 09:20 120 33
25. 2. 2020 09:00 120 33
25. 2. 2020 08:00 122 35
25. 2. 2020 07:00 122 35
25. 2. 2020 06:00 121 34
25. 2. 2020 05:00 122 35
25. 2. 2020 04:00 122 35
25. 2. 2020 03:00 122 35
25. 2. 2020 02:00 122 35
25. 2. 2020 01:00 123 36
25. 2. 2020 00:00 122 35
24. 2. 2020 23:00 123 36
24. 2. 2020 22:00 123 36
24. 2. 2020 21:00 123 36

H - water level, Q - discharge

river Sázava - water gauge Nespeky

Date and time (UTC) H (cm) Q (m3/s)
25. 2. 2020 09:20 75 14
25. 2. 2020 09:00 75 14
25. 2. 2020 08:00 74 13
25. 2. 2020 07:00 75 14
25. 2. 2020 06:00 75 14
25. 2. 2020 05:00 74 13
25. 2. 2020 04:00 74 13
25. 2. 2020 03:00 74 13
25. 2. 2020 02:00 73 13
25. 2. 2020 01:00 73 13
25. 2. 2020 00:00 73 13
24. 2. 2020 23:00 74 13
24. 2. 2020 22:00 74 13
24. 2. 2020 21:00 76 14

H - water level, Q - discharge

river Otava - water gauge Písek

Date and time (UTC) H (cm) Q (m3/s)
25. 2. 2020 09:00 131 41
25. 2. 2020 08:00 132 41
25. 2. 2020 07:00 133 42
25. 2. 2020 06:00 139 45
25. 2. 2020 05:00 141 47
25. 2. 2020 04:00 143 48
25. 2. 2020 03:00 146 50
25. 2. 2020 02:00 150 52
25. 2. 2020 01:00 154 55
25. 2. 2020 00:00 160 58
24. 2. 2020 23:00 166 63
24. 2. 2020 22:00 170 65
24. 2. 2020 21:00 176 70

H - water level, Q - discharge

river Lužnice - water gauge Bechyně

Date and time (UTC) H (cm) Q (m3/s)
25. 2. 2020 09:10 122 15
25. 2. 2020 09:00 122 15
25. 2. 2020 08:00 121 14
25. 2. 2020 07:00 121 14
25. 2. 2020 06:00 121 14
25. 2. 2020 05:00 120 14
25. 2. 2020 04:00 120 14
25. 2. 2020 03:00 120 14
25. 2. 2020 02:00 120 14
25. 2. 2020 01:00 120 14
25. 2. 2020 00:00 121 14
24. 2. 2020 23:00 121 14
24. 2. 2020 22:00 122 15
24. 2. 2020 21:00 122 15

H - water level, Q - discharge
Source data
Labe Basin Vltava Basin ČHMÚ